createdAt,value
2023-04-16T00:01:43.610Z,24
2023-04-16T00:04:14.345Z,24
2023-04-16T00:06:44.850Z,24
2023-04-16T00:09:16.095Z,24
2023-04-16T00:11:46.966Z,24
2023-04-16T00:14:17.887Z,24
2023-04-16T00:16:49.431Z,24
2023-04-16T00:19:20.497Z,24
2023-04-16T00:21:51.188Z,23
2023-04-16T00:24:22.291Z,24
2023-04-16T00:26:53.422Z,24
2023-04-16T00:29:24.881Z,25
2023-04-16T00:31:55.918Z,27
2023-04-16T00:34:26.898Z,24
2023-04-16T00:36:58.336Z,24
2023-04-16T00:39:29.227Z,28
2023-04-16T00:42:00.220Z,24
2023-04-16T00:44:31.096Z,24
2023-04-16T00:47:02.066Z,24
2023-04-16T00:49:32.852Z,24
2023-04-16T00:52:03.806Z,24
2023-04-16T00:54:34.384Z,24
2023-04-16T00:57:05.248Z,22
2023-04-16T00:59:35.927Z,20
2023-04-16T01:02:05.968Z,20
2023-04-16T01:04:36.824Z,24
2023-04-16T01:07:07.821Z,20
2023-04-16T01:09:38.800Z,24
2023-04-16T01:12:09.839Z,24
2023-04-16T01:14:40.512Z,21
2023-04-16T01:17:11.736Z,20
2023-04-16T01:19:42.941Z,23
2023-04-16T01:22:13.837Z,22
2023-04-16T01:24:44.593Z,24
2023-04-16T01:27:15.472Z,20
2023-04-16T01:29:46.477Z,22
2023-04-16T01:32:17.053Z,20
2023-04-16T01:34:47.902Z,20
2023-04-16T01:37:18.362Z,23
2023-04-16T01:39:49.165Z,20
2023-04-16T01:42:22.665Z,20
2023-04-16T01:44:53.165Z,20
2023-04-16T01:47:23.929Z,24
2023-04-16T01:49:54.763Z,20
2023-04-16T01:52:25.697Z,20
2023-04-16T01:54:56.276Z,20
2023-04-16T01:57:26.690Z,20
2023-04-16T01:59:57.711Z,20
2023-04-16T02:02:28.765Z,20
2023-04-16T02:04:59.492Z,20
2023-04-16T02:07:30.058Z,20
2023-04-16T02:12:44.785Z,24
2023-04-16T02:15:15.470Z,20
2023-04-16T02:17:46.642Z,20
2023-04-16T02:20:17.526Z,20
2023-04-16T02:22:49.509Z,20
2023-04-16T02:25:20.125Z,20
2023-04-16T02:27:50.926Z,20
2023-04-16T02:30:21.898Z,20
2023-04-16T02:32:53.311Z,20
2023-04-16T02:35:24.208Z,20
2023-04-16T02:37:55.047Z,24
2023-04-16T02:40:25.956Z,20
2023-04-16T02:42:56.119Z,16
2023-04-16T02:45:27.001Z,20
2023-04-16T02:47:57.839Z,20
2023-04-16T02:50:29.311Z,20
2023-04-16T02:52:59.429Z,20
2023-04-16T02:55:29.967Z,20
2023-04-16T02:58:00.898Z,20
2023-04-16T03:00:31.610Z,20
2023-04-16T03:03:02.834Z,16
2023-04-16T03:05:33.634Z,20
2023-04-16T03:08:03.745Z,16
2023-04-16T03:10:34.850Z,20
2023-04-16T03:13:06.159Z,19
2023-04-16T03:15:36.574Z,20
2023-04-16T03:18:07.612Z,16
2023-04-16T03:20:38.734Z,20
2023-04-16T03:23:16.140Z,16
2023-04-16T03:25:52.107Z,15
2023-04-16T03:28:22.607Z,16
2023-04-16T03:30:54.600Z,16
2023-04-16T03:33:25.498Z,12
2023-04-16T03:35:56.477Z,13
2023-04-16T03:38:27.067Z,12
2023-04-16T03:40:57.806Z,16
2023-04-16T03:43:28.651Z,16
2023-04-16T03:45:59.991Z,16
2023-04-16T03:48:30.743Z,16
2023-04-16T03:51:02.049Z,16
2023-04-16T03:53:40.309Z,18
2023-04-16T03:56:11.415Z,18
2023-04-16T03:58:42.593Z,20
2023-04-16T04:01:13.307Z,16
2023-04-16T04:03:44.254Z,16
2023-04-16T04:06:14.761Z,20
2023-04-16T04:08:45.288Z,16
2023-04-16T04:11:16.222Z,16
2023-04-16T04:13:47.450Z,13
2023-04-16T04:16:18.100Z,16
2023-04-16T04:18:49.385Z,20
2023-04-16T04:21:20.150Z,24
2023-04-16T04:26:26.672Z,16
2023-04-16T04:28:57.197Z,20
2023-04-16T04:34:07.094Z,18
2023-04-16T04:36:38.344Z,16
2023-04-16T04:39:09.694Z,19
2023-04-16T04:41:40.931Z,19
2023-04-16T04:44:17.384Z,16
2023-04-16T04:46:47.887Z,16
2023-04-16T04:49:18.680Z,17
2023-04-16T04:51:49.463Z,20
2023-04-16T04:54:20.076Z,17
2023-04-16T04:56:50.740Z,16
2023-04-16T04:59:21.998Z,18
2023-04-16T05:01:52.838Z,36
2023-04-16T05:04:23.764Z,32
2023-04-16T05:06:54.742Z,32
2023-04-16T05:09:25.324Z,36
2023-04-16T05:11:56.104Z,28
2023-04-16T05:14:26.712Z,20
2023-04-16T05:16:57.660Z,20
2023-04-16T05:19:28.475Z,20
2023-04-16T05:21:59.273Z,20
2023-04-16T05:24:30.134Z,20
2023-04-16T05:27:00.856Z,20
2023-04-16T05:29:31.656Z,24
2023-04-16T05:32:05.362Z,24
2023-04-16T05:34:36.465Z,24
2023-04-16T05:37:07.224Z,21
2023-04-16T05:39:37.949Z,22
2023-04-16T05:42:08.316Z,24
2023-04-16T05:44:39.112Z,24
2023-04-16T05:47:10.832Z,21
2023-04-16T05:49:41.713Z,22
2023-04-16T05:52:13.011Z,20
2023-04-16T05:54:44.264Z,24
2023-04-16T05:57:15.618Z,24
2023-04-16T05:59:46.531Z,24
2023-04-16T06:02:17.243Z,24
2023-04-16T06:04:48.346Z,24
2023-04-16T06:07:19.480Z,28
2023-04-16T06:09:50.278Z,24
2023-04-16T06:12:20.782Z,36
2023-04-16T06:14:51.837Z,28
2023-04-16T06:17:23.829Z,27
2023-04-16T06:19:54.821Z,24
2023-04-16T06:22:24.288Z,24
2023-04-16T06:24:55.077Z,28
2023-04-16T06:27:26.082Z,28
2023-04-16T06:29:56.953Z,24
2023-04-16T06:32:30.218Z,24
2023-04-16T06:35:00.841Z,48
2023-04-16T06:37:32.013Z,35
2023-04-16T06:40:03.159Z,31
2023-04-16T06:42:35.008Z,36
2023-04-16T06:45:05.715Z,29
2023-04-16T06:47:36.356Z,32
2023-04-16T06:50:07.055Z,32
2023-04-16T06:52:38.026Z,28
2023-04-16T06:55:09.015Z,32
2023-04-16T06:57:40.413Z,28
2023-04-16T07:00:11.089Z,28
2023-04-16T07:02:42.327Z,28
2023-04-16T07:05:13.719Z,28
2023-04-16T07:07:44.237Z,28
2023-04-16T07:10:14.945Z,32
2023-04-16T07:12:45.734Z,36
2023-04-16T07:15:16.619Z,32
2023-04-16T07:17:47.471Z,32
2023-04-16T07:20:18.149Z,32
2023-04-16T07:22:49.072Z,32
2023-04-16T07:25:19.981Z,40
2023-04-16T07:27:50.964Z,38
2023-04-16T07:30:22.170Z,36
2023-04-16T07:32:52.941Z,52
2023-04-16T07:35:23.336Z,40
2023-04-16T07:37:54.435Z,32
2023-04-16T07:40:25.673Z,36
2023-04-16T07:42:56.200Z,33
2023-04-16T07:45:27.293Z,32
2023-04-16T07:47:57.842Z,32
2023-04-16T07:50:28.562Z,28
2023-04-16T07:52:59.361Z,31
2023-04-16T07:55:30.127Z,32
2023-04-16T07:58:00.892Z,28
2023-04-16T08:00:31.621Z,28
2023-04-16T08:03:02.925Z,28
2023-04-16T08:05:33.732Z,28
2023-04-16T08:08:04.296Z,24
2023-04-16T08:10:35.081Z,24
2023-04-16T08:13:05.571Z,24
2023-04-16T08:15:36.204Z,20
2023-04-16T08:18:07.209Z,28
2023-04-16T08:20:38.048Z,16
2023-04-16T08:23:08.974Z,20
2023-04-16T08:25:40.788Z,8
2023-04-16T08:28:12.010Z,8
2023-04-16T08:30:42.922Z,11
2023-04-16T08:33:13.789Z,17
2023-04-16T08:35:44.409Z,8
2023-04-16T08:38:15.420Z,8
2023-04-16T08:40:46.165Z,16
2023-04-16T08:43:18.189Z,12
2023-04-16T08:45:48.700Z,16
2023-04-16T08:48:19.835Z,12
2023-04-16T08:50:51.612Z,10
2023-04-16T08:53:22.276Z,8
2023-04-16T08:55:53.366Z,8
2023-04-16T08:58:25.469Z,8
2023-04-16T09:00:56.698Z,8
2023-04-16T09:03:27.218Z,8
2023-04-16T09:06:01.252Z,8
2023-04-16T09:08:32.072Z,8
2023-04-16T09:11:02.657Z,8
2023-04-16T09:13:33.307Z,8
2023-04-16T09:16:03.744Z,12
2023-04-16T09:18:35.146Z,8
2023-04-16T09:21:05.954Z,4
2023-04-16T09:23:36.398Z,4
2023-04-16T09:26:07.360Z,7
2023-04-16T09:28:38.209Z,4
2023-04-16T09:31:08.669Z,4
2023-04-16T09:33:39.353Z,7
2023-04-16T09:36:19.240Z,4
2023-04-16T09:38:49.457Z,4
2023-04-16T09:41:20.197Z,8
2023-04-16T09:43:50.985Z,4
2023-04-16T09:46:22.957Z,8
2023-04-16T09:48:53.168Z,4
2023-04-16T09:51:23.780Z,5
2023-04-16T09:53:54.179Z,4
2023-04-16T09:56:24.811Z,4
2023-04-16T09:58:57.114Z,8
2023-04-16T10:01:28.743Z,4
2023-04-16T10:04:05.066Z,2
2023-04-16T10:06:35.567Z,5
2023-04-16T10:09:05.921Z,8
2023-04-16T10:11:36.097Z,4
2023-04-16T10:14:06.853Z,4
2023-04-16T10:16:36.162Z,4
2023-04-16T10:19:05.260Z,4
2023-04-16T10:21:41.303Z,6
2023-04-16T10:24:15.951Z,4
2023-04-16T10:26:46.454Z,4
2023-04-16T10:29:17.083Z,4
2023-04-16T10:31:48.153Z,4
2023-04-16T10:34:19.306Z,4
2023-04-16T10:36:49.815Z,4
2023-04-16T10:39:20.469Z,8
2023-04-16T10:41:51.338Z,4
2023-04-16T10:44:21.978Z,4
2023-04-16T10:46:52.728Z,4
2023-04-16T10:49:23.380Z,5
2023-04-16T10:51:53.902Z,8
2023-04-16T10:54:24.545Z,4
2023-04-16T10:56:55.168Z,8
2023-04-16T10:59:25.651Z,8
2023-04-16T11:01:56.505Z,24
2023-04-16T11:04:27.019Z,19
2023-04-16T11:06:58.096Z,8
2023-04-16T11:09:27.344Z,12
2023-04-16T11:11:58.283Z,16
2023-04-16T11:14:29.334Z,8
2023-04-16T11:16:59.859Z,16
2023-04-16T11:19:30.750Z,8
2023-04-16T11:22:01.602Z,8
2023-04-16T11:24:32.283Z,4
2023-04-16T11:27:02.957Z,9
2023-04-16T11:29:33.640Z,8
2023-04-16T11:32:04.643Z,5
2023-04-16T11:34:35.305Z,8
2023-04-16T11:37:08.916Z,14
2023-04-16T11:39:39.552Z,8
2023-04-16T11:42:19.549Z,8
2023-04-16T11:44:50.142Z,7
2023-04-16T11:47:20.773Z,8
2023-04-16T11:49:51.133Z,8
2023-04-16T11:52:21.980Z,12
2023-04-16T11:54:53.339Z,12
2023-04-16T11:57:24.188Z,7
2023-04-16T12:00:01.298Z,4
2023-04-16T12:02:25.925Z,4
2023-04-16T12:04:56.397Z,6
2023-04-16T12:07:27.062Z,8
2023-04-16T12:09:58.469Z,12
2023-04-16T12:12:29.129Z,7
2023-04-16T12:15:03.775Z,8
2023-04-16T12:17:35.465Z,8
2023-04-16T12:20:09.657Z,4
2023-04-16T12:22:40.378Z,4
2023-04-16T12:25:15.152Z,8
2023-04-16T12:27:52.274Z,8
2023-04-16T12:30:20.156Z,10
2023-04-16T12:32:59.417Z,8
2023-04-16T12:35:38.597Z,12
2023-04-16T12:38:08.466Z,12
2023-04-16T12:40:39.293Z,4
2023-04-16T12:43:09.981Z,8
2023-04-16T12:45:41.693Z,8
2023-04-16T12:48:12.525Z,8
2023-04-16T12:50:48.838Z,4
2023-04-16T12:53:19.589Z,4
2023-04-16T12:55:49.820Z,4
2023-04-16T12:58:20.834Z,4
2023-04-16T13:00:49.602Z,6
2023-04-16T13:03:21.621Z,4
2023-04-16T13:06:01.019Z,4
2023-04-16T13:08:31.541Z,8
2023-04-16T13:11:01.908Z,28
2023-04-16T13:13:32.715Z,8
2023-04-16T13:16:03.025Z,8
2023-04-16T13:18:33.636Z,11
2023-04-16T13:21:15.854Z,3
2023-04-16T13:24:07.440Z,4
2023-04-16T13:34:34.549Z,10
2023-04-16T13:37:04.850Z,4
2023-04-16T13:39:35.327Z,4
2023-04-16T13:44:56.721Z,12
2023-04-16T13:47:27.513Z,12
2023-04-16T13:49:58.125Z,4
2023-04-16T13:52:28.645Z,16
2023-04-16T13:55:00.185Z,4
2023-04-16T13:57:29.820Z,11
2023-04-16T14:00:00.461Z,4
2023-04-16T14:02:31.087Z,0
2023-04-16T14:05:01.982Z,4
2023-04-16T14:07:32.267Z,8
2023-04-16T14:10:03.122Z,4
2023-04-16T14:12:33.981Z,4
2023-04-16T14:15:05.186Z,9
2023-04-16T14:17:35.933Z,4
2023-04-16T14:20:06.516Z,4
2023-04-16T14:22:37.530Z,4
2023-04-16T14:25:09.303Z,10
2023-04-16T14:27:42.709Z,9
2023-04-16T14:33:18.791Z,28
2023-04-16T14:35:53.948Z,4
2023-04-16T14:38:30.094Z,0
2023-04-16T14:43:45.575Z,8
2023-04-16T14:46:15.889Z,4
2023-04-16T14:48:46.165Z,16
2023-04-16T14:51:20.924Z,4
2023-04-16T14:56:32.538Z,4
2023-04-16T14:59:03.287Z,4
2023-04-16T15:01:43.072Z,1
2023-04-16T15:04:13.353Z,4
2023-04-16T15:06:44.013Z,4
2023-04-16T15:09:14.280Z,4
2023-04-16T15:11:44.840Z,8
2023-04-16T15:14:15.393Z,0
2023-04-16T15:19:25.747Z,4
2023-04-16T15:21:56.292Z,4
2023-04-16T15:24:35.566Z,0
2023-04-16T15:27:15.929Z,1
2023-04-16T15:29:53.834Z,4
2023-04-16T15:32:46.254Z,4
2023-04-16T15:35:24.956Z,1
2023-04-16T15:37:59.170Z,0
2023-04-16T15:40:30.435Z,1
2023-04-16T15:43:09.649Z,0
2023-04-16T15:45:39.942Z,0
2023-04-16T15:48:10.832Z,1
2023-04-16T15:50:41.038Z,0
2023-04-16T15:53:11.365Z,0
2023-04-16T15:55:44.390Z,4
2023-04-16T15:58:18.440Z,0
2023-04-16T16:00:48.704Z,0
2023-04-16T16:03:19.246Z,3
2023-04-16T16:05:53.869Z,0
2023-04-16T16:08:24.039Z,4
2023-04-16T16:10:54.277Z,4
2023-04-16T16:13:32.422Z,0
2023-04-16T16:16:04.058Z,0
2023-04-16T16:18:34.044Z,4
2023-04-16T16:21:05.256Z,0
2023-04-16T16:23:35.862Z,4
2023-04-16T16:26:06.498Z,4
2023-04-16T16:28:37.346Z,4
2023-04-16T16:31:17.195Z,3
2023-04-16T16:33:47.151Z,0
2023-04-16T16:36:17.947Z,0
2023-04-16T16:38:48.594Z,4
2023-04-16T16:41:19.338Z,1
2023-04-16T16:43:50.029Z,3
2023-04-16T16:46:20.664Z,2
2023-04-16T16:48:51.381Z,3
2023-04-16T16:51:21.893Z,0
2023-04-16T16:53:52.230Z,12
2023-04-16T16:56:22.849Z,4
2023-04-16T16:58:53.789Z,0
2023-04-16T17:01:24.305Z,4
2023-04-16T17:03:54.937Z,0
2023-04-16T17:06:25.509Z,4
2023-04-16T17:09:00.039Z,4
2023-04-16T17:11:30.283Z,0
2023-04-16T17:14:00.715Z,8
2023-04-16T17:16:31.581Z,4
2023-04-16T17:19:03.339Z,8
2023-04-16T17:21:33.788Z,4
2023-04-16T17:24:04.366Z,8
2023-04-16T17:26:35.001Z,8
2023-04-16T17:29:06.793Z,4
2023-04-16T17:31:37.113Z,4
2023-04-16T17:34:15.795Z,4
2023-04-16T17:36:46.688Z,4
2023-04-16T17:39:18.144Z,4
2023-04-16T17:41:51.374Z,4
2023-04-16T17:44:22.549Z,4
2023-04-16T17:46:53.086Z,1
2023-04-16T17:49:24.119Z,0
2023-04-16T17:51:54.454Z,1
2023-04-16T17:54:25.902Z,4
2023-04-16T17:56:57.868Z,4
2023-04-16T17:59:28.084Z,4
2023-04-16T18:01:58.467Z,1
2023-04-16T18:04:28.637Z,3
2023-04-16T18:06:59.247Z,1
2023-04-16T18:09:29.872Z,3
2023-04-16T18:12:00.251Z,1
2023-04-16T18:14:31.205Z,4
2023-04-16T18:17:03.659Z,4
2023-04-16T18:19:33.622Z,4
2023-04-16T18:22:03.807Z,4
2023-04-16T18:24:34.752Z,4
2023-04-16T18:27:05.839Z,4
2023-04-16T18:29:36.003Z,4
2023-04-16T18:32:06.702Z,4
2023-04-16T18:34:36.700Z,4
2023-04-16T18:37:07.267Z,4
2023-04-16T18:39:39.519Z,4
2023-04-16T18:42:09.722Z,2
2023-04-16T18:44:40.095Z,4
2023-04-16T18:47:11.074Z,4
2023-04-16T18:49:41.417Z,4
2023-04-16T18:52:11.775Z,4
2023-04-16T18:54:42.246Z,4
2023-04-16T18:57:13.226Z,4
2023-04-16T18:59:43.666Z,4
2023-04-16T19:02:14.277Z,4
2023-04-16T19:04:45.271Z,6
2023-04-16T19:07:14.414Z,4
2023-04-16T19:09:44.724Z,4
2023-04-16T19:12:14.718Z,4
2023-04-16T19:14:43.551Z,4
2023-04-16T19:17:14.323Z,4
2023-04-16T19:19:44.574Z,4
2023-04-16T19:22:15.000Z,4
2023-04-16T19:24:44.297Z,5
2023-04-16T19:27:14.870Z,4
2023-04-16T19:29:43.798Z,4
2023-04-16T19:32:14.338Z,4
2023-04-16T19:34:43.973Z,4
2023-04-16T19:37:14.641Z,4
2023-04-16T19:39:45.364Z,7
2023-04-16T19:42:16.027Z,4
2023-04-16T19:44:46.739Z,4
2023-04-16T19:47:17.499Z,8
2023-04-16T19:49:47.997Z,4
2023-04-16T19:52:19.255Z,8
2023-04-16T19:54:49.957Z,8
2023-04-16T19:57:21.185Z,5
2023-04-16T19:59:53.002Z,4
2023-04-16T20:05:02.674Z,4
2023-04-16T20:07:36.007Z,4
2023-04-16T20:10:04.677Z,5
2023-04-16T20:15:35.184Z,4
2023-04-16T20:18:05.763Z,4
2023-04-16T20:20:35.902Z,4
2023-04-16T20:23:07.031Z,4
2023-04-16T20:25:37.548Z,6
2023-04-16T20:28:08.032Z,8
2023-04-16T20:30:39.624Z,6
2023-04-16T20:33:10.444Z,8
2023-04-16T20:35:41.089Z,5
2023-04-16T20:38:11.922Z,4
2023-04-16T20:40:43.247Z,6
2023-04-16T20:43:14.513Z,8
2023-04-16T20:45:45.397Z,7
2023-04-16T20:48:15.775Z,8
2023-04-16T20:50:46.578Z,8
2023-04-16T20:53:16.879Z,8
2023-04-16T20:55:47.131Z,8
2023-04-16T20:58:18.015Z,8
2023-04-16T21:00:53.041Z,8
2023-04-16T21:03:23.731Z,8
2023-04-16T21:05:54.683Z,8
2023-04-16T21:08:25.257Z,8
2023-04-16T21:10:56.267Z,8
2023-04-16T21:13:27.098Z,8
2023-04-16T21:15:58.260Z,8
2023-04-16T21:18:28.942Z,12
2023-04-16T21:20:59.596Z,12
2023-04-16T21:23:35.993Z,12
2023-04-16T21:26:06.440Z,11
2023-04-16T21:28:37.077Z,12
2023-04-16T21:31:08.166Z,12
2023-04-16T21:33:42.294Z,15
2023-04-16T21:36:13.535Z,16
2023-04-16T21:38:44.348Z,16
2023-04-16T21:41:15.482Z,16
2023-04-16T21:43:46.468Z,16
2023-04-16T21:46:17.321Z,16
2023-04-16T21:48:48.006Z,16
2023-04-16T21:51:18.793Z,12
2023-04-16T21:53:49.489Z,12
2023-04-16T21:56:20.280Z,12
2023-04-16T21:58:51.025Z,12
2023-04-16T22:01:22.588Z,12
2023-04-16T22:03:53.596Z,12
2023-04-16T22:06:24.263Z,15
2023-04-16T22:08:54.800Z,16
2023-04-16T22:11:25.688Z,18
2023-04-16T22:13:56.157Z,16
2023-04-16T22:16:26.836Z,20
2023-04-16T22:18:57.922Z,20
2023-04-16T22:21:28.478Z,22
2023-04-16T22:23:59.092Z,20
2023-04-16T22:26:29.518Z,20
2023-04-16T22:29:00.527Z,20
2023-04-16T22:31:31.242Z,20
2023-04-16T22:34:01.505Z,20
2023-04-16T22:36:30.734Z,20
2023-04-16T22:39:01.594Z,17
2023-04-16T22:41:31.992Z,16
2023-04-16T22:44:02.859Z,16
2023-04-16T22:46:34.663Z,12
2023-04-16T22:49:05.955Z,12
2023-04-16T22:51:36.374Z,14
2023-04-16T22:54:08.002Z,8
2023-04-16T22:56:38.798Z,8
2023-04-16T22:59:09.933Z,8
2023-04-16T23:01:40.197Z,12
2023-04-16T23:04:11.276Z,11
2023-04-16T23:06:42.277Z,8
2023-04-16T23:09:13.616Z,8
2023-04-16T23:11:44.144Z,8
2023-04-16T23:14:16.688Z,12
2023-04-16T23:16:46.562Z,12
2023-04-16T23:19:16.806Z,12
2023-04-16T23:21:47.928Z,10
2023-04-16T23:24:18.530Z,8
2023-04-16T23:26:48.994Z,8
2023-04-16T23:29:19.586Z,12
2023-04-16T23:31:50.937Z,8
2023-04-16T23:34:22.548Z,8
2023-04-16T23:36:53.707Z,9
2023-04-16T23:39:24.824Z,11
2023-04-16T23:41:56.250Z,12
2023-04-16T23:44:27.402Z,8
2023-04-16T23:46:58.410Z,12
2023-04-16T23:49:29.371Z,12
2023-04-16T23:52:00.599Z,12
2023-04-16T23:54:31.519Z,12
2023-04-16T23:57:02.622Z,12
2023-04-16T23:59:33.143Z,12
